Time;durP1;ratioP1;P1;durP2;ratioP2;P2;SDS_P1;SDS_P2;PMS_P1;PMS_P2;Temp;Humidity;BMP_temperature;BMP_pressure;BME280_temperature;BME280_humidity;BME280_pressure;Samples;Min_cycle;Max_cycle;Signal;HPM_P1;HPM_P2
2023/06/22 00:00:45;;;;;;;15.35;13.75;;;17.30;99.90;;;;;;4977448;28;20216;-84
2023/06/22 00:03:11;;;;;;;15.10;13.50;;;17.30;99.90;;;;;;4977707;28;20296;-82
2023/06/22 00:05:38;;;;;;;15.15;13.55;;;17.30;99.90;;;;;;4977294;28;20200;-82
2023/06/22 00:08:06;;;;;;;14.02;12.50;;;17.30;99.90;;;;;;4977260;28;20598;-83
2023/06/22 00:10:35;;;;;;;16.80;14.48;;;17.30;99.90;;;;;;4976923;28;20307;-85
2023/06/22 00:13:01;;;;;;;17.70;15.88;;;17.30;99.90;;;;;;4977393;28;20586;-85
2023/06/22 00:15:29;;;;;;;15.95;14.27;;;17.30;99.90;;;;;;4977600;28;20291;-84
2023/06/22 00:17:58;;;;;;;16.40;14.68;;;17.30;99.90;;;;;;4977607;28;20208;-83
2023/06/22 00:20:27;;;;;;;15.35;13.75;;;17.20;99.90;;;;;;4977598;28;20666;-79
2023/06/22 00:22:54;;;;;;;13.80;12.48;;;17.20;99.90;;;;;;4977311;28;20209;-83
2023/06/22 00:25:22;;;;;;;14.32;12.85;;;17.20;99.90;;;;;;4976780;28;20672;-84
2023/06/22 00:27:50;;;;;;;18.63;15.90;;;17.20;99.90;;;;;;4992324;28;20196;-85
2023/06/22 00:30:19;;;;;;;16.77;14.27;;;17.10;99.90;;;;;;4996551;28;20232;-85
2023/06/22 00:32:46;;;;;;;17.73;15.82;;;17.10;99.90;;;;;;4996309;28;20302;-85
2023/06/22 00:35:13;;;;;;;18.05;15.15;;;17.10;99.90;;;;;;4996922;28;20251;-82
2023/06/22 00:37:41;;;;;;;24.30;19.98;;;17.10;99.90;;;;;;4988082;28;20205;-85
2023/06/22 00:40:11;;;;;;;19.95;16.73;;;17.10;99.90;;;;;;4976746;28;20201;-85
2023/06/22 00:42:37;;;;;;;16.63;14.82;;;17.10;99.90;;;;;;4977311;28;20212;-86
2023/06/22 00:45:07;;;;;;;18.50;16.58;;;17.10;99.90;;;;;;4986282;28;20292;-84
2023/06/22 00:47:36;;;;;;;20.33;17.52;;;17.10;99.90;;;;;;4996680;28;20199;-80
2023/06/22 00:50:05;;;;;;;16.05;14.40;;;17.00;99.90;;;;;;4996213;28;20255;-85
2023/06/22 00:52:34;;;;;;;16.38;14.63;;;17.00;99.90;;;;;;4996315;28;20321;-86
2023/06/22 00:55:03;;;;;;;18.65;15.93;;;17.00;99.90;;;;;;4996322;28;20338;-84
2023/06/22 00:57:31;;;;;;;22.45;18.92;;;17.00;99.90;;;;;;4976792;28;20299;-85
2023/06/22 00:59:58;;;;;;;27.38;23.00;;;17.00;99.90;;;;;;4976157;28;20204;-83
2023/06/22 01:02:26;;;;;;;27.88;22.63;;;17.00;99.90;;;;;;4976453;28;20304;-85
2023/06/22 01:04:55;;;;;;;21.20;18.73;;;17.00;99.90;;;;;;4976938;28;20287;-85
2023/06/22 01:07:30;;;;;;;20.38;17.95;;;17.00;99.90;;;;;;4976543;28;20605;-85
2023/06/22 01:10:04;;;;;;;27.33;22.33;;;17.00;99.90;;;;;;4976562;28;20223;-80
2023/06/22 01:12:35;;;;;;;30.67;25.65;;;17.00;99.90;;;;;;4987054;28;20512;-84
2023/06/22 01:15:10;;;;;;;27.13;23.00;;;17.00;99.90;;;;;;4995859;28;20254;-84
2023/06/22 01:17:44;;;;;;;26.48;22.83;;;17.00;99.90;;;;;;4996420;28;20246;-85
2023/06/22 01:20:13;;;;;;;23.60;19.98;;;17.00;99.90;;;;;;4995202;28;20251;-82
2023/06/22 01:22:51;;;;;;;24.08;21.48;;;17.00;99.90;;;;;;4976598;28;20283;-84
2023/06/22 01:25:27;;;;;;;20.75;18.55;;;17.00;99.90;;;;;;4976349;28;20689;-81
2023/06/22 01:28:04;;;;;;;21.42;18.50;;;16.90;99.90;;;;;;4976529;28;20216;-85
2023/06/22 01:30:34;;;;;;;22.90;19.65;;;16.90;99.90;;;;;;4976928;28;20268;-84
2023/06/22 01:33:03;;;;;;;29.67;24.35;;;16.80;99.90;;;;;;4979041;28;20200;-84
2023/06/22 01:35:31;;;;;;;26.70;21.70;;;16.80;99.90;;;;;;4995896;28;20214;-85
2023/06/22 01:37:59;;;;;;;28.58;22.52;;;16.90;99.90;;;;;;4990740;28;20282;-85
2023/06/22 01:40:26;;;;;;;21.35;18.05;;;16.80;99.90;;;;;;4975778;28;20668;-81
2023/06/22 01:42:54;;;;;;;22.83;19.33;;;16.80;99.90;;;;;;4977255;28;20215;-84
2023/06/22 01:45:22;;;;;;;23.08;19.33;;;16.80;99.90;;;;;;4976413;28;20263;-83
2023/06/22 01:47:51;;;;;;;21.83;18.33;;;16.80;99.90;;;;;;4976187;28;20208;-84
2023/06/22 01:50:18;;;;;;;23.45;19.55;;;16.80;99.90;;;;;;4975778;28;20225;-82
2023/06/22 01:52:45;;;;;;;23.15;19.30;;;16.70;99.90;;;;;;4975302;28;20225;-86
2023/06/22 01:55:12;;;;;;;23.38;19.25;;;16.70;99.90;;;;;;4975186;28;20291;-84
2023/06/22 01:57:40;;;;;;;20.60;16.83;;;16.70;99.90;;;;;;4975603;28;20205;-82
2023/06/22 02:00:12;;;;;;;18.95;16.15;;;16.70;99.90;;;;;;4976138;28;20609;-82
2023/06/22 02:02:44;;;;;;;29.15;22.38;;;16.70;99.90;;;;;;4975394;28;20247;-85
2023/06/22 02:05:16;;;;;;;22.27;17.77;;;16.60;99.90;;;;;;4975063;28;20228;-81
2023/06/22 02:07:50;;;;;;;23.90;19.50;;;16.60;99.90;;;;;;4975761;28;20240;-85
2023/06/22 02:10:21;;;;;;;19.35;17.25;;;16.50;99.90;;;;;;4975295;28;20231;-83
2023/06/22 02:12:49;;;;;;;18.83;16.15;;;16.50;99.90;;;;;;4975486;28;20205;-82
2023/06/22 02:15:17;;;;;;;20.98;17.52;;;16.50;99.90;;;;;;4974881;28;20570;-83
2023/06/22 02:17:45;;;;;;;16.95;15.05;;;16.40;99.90;;;;;;4974736;28;20567;-83
2023/06/22 02:20:15;;;;;;;19.85;17.00;;;16.40;99.90;;;;;;4975030;28;20200;-84
2023/06/22 02:22:42;;;;;;;18.23;16.10;;;16.40;99.90;;;;;;4974311;28;20288;-78
2023/06/22 02:25:09;;;;;;;17.05;15.25;;;16.40;99.90;;;;;;4974319;28;20201;-85
2023/06/22 02:27:40;;;;;;;18.05;16.08;;;16.40;99.90;;;;;;4975004;28;20205;-84
2023/06/22 02:30:08;;;;;;;18.30;15.95;;;16.30;99.90;;;;;;4980086;28;20309;-79
2023/06/22 02:32:35;;;;;;;21.13;17.23;;;16.30;99.90;;;;;;4994377;28;20270;-78
2023/06/22 02:35:04;;;;;;;19.08;16.92;;;16.30;99.90;;;;;;4994228;28;20203;-81
2023/06/22 02:37:32;;;;;;;21.60;18.38;;;16.30;99.90;;;;;;4983754;28;20240;-84
2023/06/22 02:39:59;;;;;;;19.42;17.30;;;16.30;99.90;;;;;;4974470;28;20548;-80
2023/06/22 02:42:26;;;;;;;16.80;15.00;;;16.30;99.90;;;;;;4974461;28;20200;-81
2023/06/22 02:44:53;;;;;;;14.75;13.20;;;16.20;99.90;;;;;;4973332;28;20238;-78
2023/06/22 02:47:20;;;;;;;13.93;12.48;;;16.20;99.90;;;;;;4974973;28;20720;-83
2023/06/22 02:49:47;;;;;;;20.10;16.02;;;16.20;99.90;;;;;;4973901;28;20216;-83
2023/06/22 02:52:13;;;;;;;17.67;15.25;;;16.20;99.90;;;;;;4973845;28;20315;-83
2023/06/22 02:54:42;;;;;;;17.48;15.05;;;16.20;99.90;;;;;;4993020;28;20251;-83
2023/06/22 02:57:13;;;;;;;17.83;15.70;;;16.20;99.90;;;;;;4994284;28;20196;-81
2023/06/22 02:59:40;;;;;;;19.70;17.48;;;16.20;99.90;;;;;;4993924;28;20203;-85
2023/06/22 03:02:07;;;;;;;18.42;16.40;;;16.20;99.90;;;;;;4993594;28;20219;-84
2023/06/22 03:04:35;;;;;;;25.15;20.55;;;16.20;99.90;;;;;;4996486;28;20204;-81
2023/06/22 03:07:02;;;;;;;23.52;19.65;;;16.20;99.90;;;;;;4995843;28;20591;-82
2023/06/22 03:09:29;;;;;;;20.55;17.73;;;16.20;99.90;;;;;;4997805;28;20204;-78
2023/06/22 03:11:58;;;;;;;19.30;16.30;;;16.20;99.90;;;;;;4996983;28;20224;-77
2023/06/22 03:14:25;;;;;;;20.70;17.90;;;16.20;99.90;;;;;;4995036;28;20196;-81
2023/06/22 03:16:52;;;;;;;20.70;16.85;;;16.20;99.90;;;;;;4977916;28;20192;-83
2023/06/22 03:19:19;;;;;;;20.35;17.50;;;16.20;99.90;;;;;;4978095;28;20424;-81
2023/06/22 03:21:46;;;;;;;19.23;15.65;;;16.10;99.90;;;;;;4978034;28;20287;-79
2023/06/22 03:24:13;;;;;;;29.63;22.38;;;16.10;99.90;;;;;;4993249;28;20227;-82
2023/06/22 03:26:40;;;;;;;22.85;19.85;;;16.20;99.90;;;;;;4996555;28;20204;-78
2023/06/22 03:29:08;;;;;;;18.88;16.85;;;16.20;99.90;;;;;;4997550;28;20199;-78
2023/06/22 03:31:35;;;;;;;19.63;16.52;;;16.10;99.90;;;;;;4996740;28;20267;-81
2023/06/22 03:34:02;;;;;;;20.83;18.50;;;16.10;99.90;;;;;;4991888;28;20196;-80
2023/06/22 03:36:29;;;;;;;21.85;17.67;;;16.10;99.90;;;;;;4977532;28;20209;-78
2023/06/22 03:38:57;;;;;;;22.25;19.38;;;16.10;99.90;;;;;;4977993;28;20201;-84
2023/06/22 03:41:25;;;;;;;25.33;19.90;;;16.10;99.90;;;;;;4977837;28;20238;-85
2023/06/22 03:43:52;;;;;;;28.92;21.60;;;16.10;99.90;;;;;;4978347;28;20200;-79
2023/06/22 03:46:20;;;;;;;28.42;23.08;;;16.10;99.90;;;;;;4978324;28;20239;-81
2023/06/22 03:48:47;;;;;;;27.60;21.38;;;16.10;99.90;;;;;;4982667;28;20207;-85
2023/06/22 03:51:14;;;;;;;25.85;21.83;;;16.10;99.90;;;;;;4996783;28;20260;-84
2023/06/22 03:53:41;;;;;;;29.85;23.10;;;16.10;99.90;;;;;;4996737;28;20224;-83
2023/06/22 03:56:08;;;;;;;35.47;27.55;;;16.10;99.90;;;;;;4995335;28;20236;-82
2023/06/22 03:58:36;;;;;;;33.22;27.40;;;16.10;99.90;;;;;;4981454;28;20210;-84
2023/06/22 04:01:03;;;;;;;33.85;26.30;;;16.10;99.90;;;;;;4975959;28;20249;-83
2023/06/22 04:03:32;;;;;;;31.35;25.38;;;16.10;99.90;;;;;;4977070;28;20288;-84
2023/06/22 04:05:59;;;;;;;32.80;25.35;;;16.10;99.90;;;;;;4977315;28;20293;-85
2023/06/22 04:08:26;;;;;;;36.90;27.42;;;16.20;99.90;;;;;;4977207;28;20256;-80
2023/06/22 04:10:53;;;;;;;38.58;30.10;;;16.20;99.90;;;;;;4983992;28;20645;-80
2023/06/22 04:13:20;;;;;;;35.35;27.85;;;16.30;99.90;;;;;;4996498;28;20204;-84
2023/06/22 04:15:47;;;;;;;35.63;26.63;;;16.30;99.90;;;;;;4992648;28;20220;-84
2023/06/22 04:18:14;;;;;;;44.20;32.60;;;16.40;99.90;;;;;;4976594;28;20205;-83
2023/06/22 04:20:46;;;;;;;36.28;29.30;;;16.40;99.90;;;;;;4976587;28;20248;-82
2023/06/22 04:23:13;;;;;;;35.53;27.02;;;16.50;99.90;;;;;;4975957;28;20196;-84
2023/06/22 04:25:40;;;;;;;39.22;29.85;;;16.50;99.90;;;;;;4976814;28;20234;-84
2023/06/22 04:28:12;;;;;;;43.25;31.55;;;16.60;99.90;;;;;;4976501;28;20669;-82
2023/06/22 04:30:46;;;;;;;39.00;28.98;;;16.60;99.90;;;;;;4976809;28;20283;-82
2023/06/22 04:33:13;;;;;;;36.47;28.00;;;16.70;99.90;;;;;;4976541;28;20209;-81
2023/06/22 04:35:42;;;;;;;39.63;30.17;;;16.80;99.90;;;;;;4976397;28;20208;-84
2023/06/22 04:38:09;;;;;;;36.00;27.95;;;16.80;99.90;;;;;;4977157;28;20196;-83
2023/06/22 04:40:36;;;;;;;43.75;32.53;;;16.90;99.90;;;;;;4983394;28;20624;-84
2023/06/22 04:43:05;;;;;;;50.17;35.28;;;17.00;99.90;;;;;;4996432;28;20200;-88
2023/06/22 04:45:33;;;;;;;45.00;34.78;;;17.00;99.90;;;;;;4996412;28;20235;-83
2023/06/22 04:48:00;;;;;;;41.80;32.78;;;17.10;99.90;;;;;;4996291;28;20207;-85
2023/06/22 04:50:27;;;;;;;41.17;31.45;;;17.20;99.90;;;;;;4995902;28;20203;-84
2023/06/22 04:52:55;;;;;;;42.67;31.75;;;17.20;99.90;;;;;;4996545;28;20224;-85
2023/06/22 04:55:22;;;;;;;42.00;30.33;;;17.30;99.90;;;;;;4987974;28;20610;-77
2023/06/22 04:57:50;;;;;;;46.20;34.67;;;17.40;99.90;;;;;;4977137;28;20228;-78
2023/06/22 05:00:19;;;;;;;46.03;33.55;;;17.50;99.90;;;;;;4977116;28;20244;-83
2023/06/22 05:02:47;;;;;;;42.78;31.40;;;17.60;99.90;;;;;;4976923;28;20256;-85
2023/06/22 05:05:14;;;;;;;40.22;30.67;;;17.70;99.90;;;;;;4976766;28;20228;-86
2023/06/22 05:07:43;;;;;;;37.63;29.27;;;17.80;99.90;;;;;;4977179;28;20267;-85
2023/06/22 05:10:12;;;;;;;39.80;30.35;;;17.90;99.90;;;;;;4989088;28;20286;-83
2023/06/22 05:12:40;;;;;;;48.53;35.60;;;18.00;99.90;;;;;;4995773;28;20228;-84
2023/06/22 05:15:08;;;;;;;42.05;32.42;;;18.10;99.90;;;;;;4996185;28;20335;-85
2023/06/22 05:17:35;;;;;;;45.83;33.45;;;18.20;99.90;;;;;;4984807;28;20216;-86
2023/06/22 05:20:06;;;;;;;37.58;29.88;;;18.40;99.90;;;;;;4976566;28;20243;-86
2023/06/22 05:22:33;;;;;;;43.42;32.55;;;18.60;99.90;;;;;;4977273;28;20231;-82
2023/06/22 05:25:00;;;;;;;38.20;29.60;;;18.80;99.90;;;;;;4976631;28;20334;-86
2023/06/22 05:27:28;;;;;;;41.38;32.47;;;19.10;99.90;;;;;;4975292;28;20204;-86
2023/06/22 05:29:55;;;;;;;38.42;29.17;;;19.40;99.90;;;;;;4975422;28;20208;-87
2023/06/22 05:32:22;;;;;;;33.92;27.80;;;19.80;99.90;;;;;;4974802;28;20253;-87
2023/06/22 05:34:49;;;;;;;32.70;26.92;;;20.00;99.90;;;;;;4974492;28;20295;-82
2023/06/22 05:37:16;;;;;;;31.90;27.00;;;20.20;99.90;;;;;;4975081;28;20208;-87
2023/06/22 05:39:43;;;;;;;29.83;26.73;;;20.30;99.90;;;;;;4975207;28;20263;-86
2023/06/22 05:42:10;;;;;;;31.92;25.88;;;20.40;99.90;;;;;;4975897;28;20220;-85
2023/06/22 05:44:40;;;;;;;30.50;25.33;;;20.50;99.90;;;;;;4975796;28;20201;-86
2023/06/22 05:47:07;;;;;;;28.25;23.02;;;20.60;99.90;;;;;;4975581;28;20204;-86
2023/06/22 05:49:34;;;;;;;30.85;26.15;;;20.70;99.90;;;;;;4975821;28;20275;-88
2023/06/22 05:52:02;;;;;;;28.77;23.77;;;20.80;99.90;;;;;;4975583;28;20264;-83
2023/06/22 05:54:29;;;;;;;31.58;24.33;;;20.90;99.90;;;;;;4973923;28;20236;-85
2023/06/22 05:56:56;;;;;;;31.30;25.13;;;21.00;99.90;;;;;;4974647;28;20212;-89
2023/06/22 05:59:23;;;;;;;26.70;23.33;;;21.10;99.90;;;;;;4976029;28;20208;-89
2023/06/22 06:01:51;;;;;;;23.23;20.92;;;21.10;99.90;;;;;;4975853;28;20197;-85
2023/06/22 06:04:19;;;;;;;30.00;25.30;;;21.20;99.90;;;;;;4976362;28;20251;-88
2023/06/22 06:06:46;;;;;;;30.10;26.00;;;21.40;99.90;;;;;;4976152;28;20235;-88
2023/06/22 06:09:14;;;;;;;23.15;20.83;;;21.50;99.90;;;;;;4975589;28;20205;-85
2023/06/22 06:11:41;;;;;;;26.05;21.30;;;21.60;99.90;;;;;;4976087;28;20234;-88
2023/06/22 06:14:07;;;;;;;29.15;24.95;;;21.70;99.90;;;;;;4975387;28;20296;-85
2023/06/22 06:16:34;;;;;;;28.20;24.85;;;21.80;99.90;;;;;;4975506;28;20681;-90
2023/06/22 06:19:03;;;;;;;28.80;25.65;;;21.90;99.90;;;;;;4984186;28;20292;-87
2023/06/22 06:21:30;;;;;;;29.17;26.17;;;21.90;99.90;;;;;;4975452;28;20610;-89
2023/06/22 06:23:57;;;;;;;26.80;23.90;;;21.90;99.90;;;;;;4983009;28;20208;-89
2023/06/22 06:26:27;;;;;;;24.10;21.27;;;22.00;99.90;;;;;;4994677;28;20238;-83
2023/06/22 06:28:55;;;;;;;28.58;25.42;;;22.00;99.90;;;;;;4992829;28;20215;-85
2023/06/22 06:31:23;;;;;;;27.95;24.80;;;22.00;99.90;;;;;;4993641;28;20747;-85
2023/06/22 06:33:49;;;;;;;27.83;24.48;;;22.00;99.90;;;;;;4994593;28;20259;-85
2023/06/22 06:36:18;;;;;;;24.88;21.75;;;22.10;99.90;;;;;;4993597;28;20204;-82
2023/06/22 06:38:46;;;;;;;25.52;23.00;;;22.20;99.90;;;;;;4993509;28;20200;-81
2023/06/22 06:41:13;;;;;;;28.00;24.95;;;22.50;99.90;;;;;;4989882;28;20494;-82
2023/06/22 06:43:42;;;;;;;23.15;20.65;;;22.70;99.90;;;;;;4974532;28;20421;-87
2023/06/22 06:46:09;;;;;;;26.17;23.23;;;22.90;99.90;;;;;;4974558;28;20211;-83
2023/06/22 06:48:36;;;;;;;31.40;25.35;;;23.20;99.90;;;;;;4974047;28;20564;-80
2023/06/22 06:51:03;;;;;;;24.65;22.10;;;23.40;99.90;;;;;;4972711;28;20251;-77
2023/06/22 06:53:31;;;;;;;23.38;20.90;;;23.60;99.90;;;;;;4973437;28;20775;-85
2023/06/22 06:55:58;;;;;;;25.60;21.88;;;23.80;99.90;;;;;;4972671;28;20236;-79
2023/06/22 06:58:25;;;;;;;25.55;22.85;;;24.00;99.90;;;;;;4973123;28;20203;-82
2023/06/22 07:00:52;;;;;;;22.67;20.30;;;24.10;99.90;;;;;;4978045;28;20203;-88
2023/06/22 07:03:19;;;;;;;25.02;22.25;;;24.40;99.90;;;;;;4993859;28;20584;-83
2023/06/22 07:05:46;;;;;;;22.38;20.10;;;24.40;99.90;;;;;;4993164;28;20278;-84
2023/06/22 07:08:13;;;;;;;23.45;21.05;;;24.30;99.90;;;;;;4994175;28;20278;-85
2023/06/22 07:10:41;;;;;;;26.40;23.23;;;24.10;99.90;;;;;;4989100;28;20287;-84
2023/06/22 07:13:08;;;;;;;22.92;20.63;;;24.00;99.90;;;;;;4973872;28;20332;-83
2023/06/22 07:15:35;;;;;;;23.35;20.80;;;24.10;99.90;;;;;;4973094;28;20232;-84
2023/06/22 07:18:02;;;;;;;20.60;18.40;;;24.10;99.90;;;;;;4973972;28;20197;-82
2023/06/22 07:20:29;;;;;;;22.77;20.48;;;24.20;99.90;;;;;;4990767;28;20503;-80
2023/06/22 07:22:56;;;;;;;20.10;18.00;;;24.30;99.90;;;;;;4982592;28;20289;-82
2023/06/22 07:25:23;;;;;;;18.38;16.30;;;24.20;99.90;;;;;;4976704;28;20207;-83
2023/06/22 07:28:01;;;;;;;18.40;16.55;;;24.30;99.90;;;;;;4993100;28;20220;-79
2023/06/22 07:30:28;;;;;;;17.83;14.73;;;24.40;99.90;;;;;;4991550;28;20188;-79
2023/06/22 07:32:55;;;;;;;14.80;13.38;;;24.60;99.90;;;;;;4973603;28;20244;-84
2023/06/22 07:35:23;;;;;;;18.45;16.60;;;24.90;99.90;;;;;;4973871;28;20205;-84
2023/06/22 07:37:50;;;;;;;21.55;17.48;;;25.10;1.00;;;;;;4974376;28;20197;-84
2023/06/22 07:40:17;;;;;;;17.35;13.80;;;25.10;1.00;;;;;;4990693;28;20208;-85
2023/06/22 07:42:47;;;;;;;14.35;12.02;;;25.20;1.00;;;;;;4993243;28;20260;-82
2023/06/22 07:45:16;;;;;;;11.48;10.20;;;25.40;1.00;;;;;;4992907;28;20196;-81
2023/06/22 07:47:43;;;;;;;10.23;8.10;;;25.70;99.90;;;;;;4991634;28;20523;-78
2023/06/22 07:50:11;;;;;;;9.55;8.25;;;25.80;1.00;;;;;;4994330;28;20196;-86
2023/06/22 07:52:38;;;;;;;11.85;10.65;;;26.00;1.00;;;;;;4977230;28;20233;-81
2023/06/22 07:55:06;;;;;;;10.63;8.95;;;26.10;99.90;;;;;;4988978;28;20741;-87
2023/06/22 07:57:36;;;;;;;11.93;10.40;;;26.20;99.90;;;;;;4996133;28;20588;-91
2023/06/22 08:00:11;;;;;;;14.07;11.73;;;26.30;1.00;;;;;;4994631;28;20196;-83
2023/06/22 08:02:39;;;;;;;13.55;12.25;;;26.30;1.00;;;;;;4977223;28;20205;-87
2023/06/22 08:05:08;;;;;;;15.63;14.02;;;26.40;1.00;;;;;;4976902;28;20207;-80
2023/06/22 08:07:35;;;;;;;15.30;13.68;;;26.50;1.00;;;;;;4976501;28;20208;-83
2023/06/22 08:10:02;;;;;;;13.68;12.27;;;26.70;1.00;;;;;;4976866;28;20211;-84
2023/06/22 08:12:29;;;;;;;15.15;13.63;;;26.80;99.90;;;;;;4976529;28;20256;-80
2023/06/22 08:14:56;;;;;;;17.90;16.17;;;27.00;47.70;;;;;;4992274;28;20207;-87
2023/06/22 08:17:23;;;;;;;19.70;17.83;;;27.10;1.00;;;;;;4987471;28;20608;-84
2023/06/22 08:19:52;;;;;;;21.73;19.65;;;27.10;1.00;;;;;;4996868;28;20295;-88
2023/06/22 08:22:19;;;;;;;22.85;20.60;;;27.20;1.00;;;;;;4996514;28;20208;-88
2023/06/22 08:24:46;;;;;;;24.55;22.35;;;27.10;1.00;;;;;;4997640;28;20287;-86
2023/06/22 08:27:14;;;;;;;21.05;19.05;;;27.00;99.90;;;;;;4995116;28;20228;-87
2023/06/22 08:29:42;;;;;;;23.35;21.05;;;26.80;1.00;;;;;;4976131;28;20201;-86
2023/06/22 08:32:10;;;;;;;22.50;20.45;;;27.10;99.90;;;;;;4976089;28;20256;-86
2023/06/22 08:34:41;;;;;;;19.95;18.10;;;27.20;99.90;;;;;;4976228;28;20248;-85
2023/06/22 08:37:10;;;;;;;19.20;17.45;;;27.30;99.90;;;;;;4976896;28;20645;-89
2023/06/22 08:39:37;;;;;;;16.92;15.27;;;27.40;1.00;;;;;;4977548;28;20204;-89
2023/06/22 08:42:04;;;;;;;18.02;16.27;;;27.30;99.90;;;;;;4977057;28;20256;-81
2023/06/22 08:44:31;;;;;;;19.00;17.08;;;27.20;99.90;;;;;;4977040;28;20295;-94
2023/06/22 08:46:58;;;;;;;18.70;16.77;;;27.20;60.90;;;;;;4977483;28;20197;-89
2023/06/22 08:49:25;;;;;;;16.80;15.00;;;27.00;1.00;;;;;;4979953;28;20208;-86
2023/06/22 08:51:53;;;;;;;15.27;13.88;;;26.90;18.80;;;;;;4991513;28;20582;-89
2023/06/22 08:54:22;;;;;;;15.35;13.85;;;27.00;99.90;;;;;;4990160;28;20322;-87
2023/06/22 08:56:49;;;;;;;15.32;13.75;;;27.00;25.70;;;;;;4991951;28;20263;-83
2023/06/22 08:59:16;;;;;;;17.35;15.15;;;27.10;99.90;;;;;;4976406;28;20212;-84
2023/06/22 09:01:45;;;;;;;18.52;15.90;;;27.20;1.00;;;;;;4974607;28;20201;-83
2023/06/22 09:04:12;;;;;;;12.38;11.27;;;27.00;49.00;;;;;;4975480;28;20212;-82
2023/06/22 09:06:45;;;;;;;13.25;11.90;;;27.30;99.90;;;;;;4974519;28;20205;-83
2023/06/22 09:09:13;;;;;;;13.50;12.07;;;27.60;1.00;;;;;;4986679;28;20582;-83
2023/06/22 09:11:42;;;;;;;13.90;12.50;;;27.90;1.00;;;;;;4994555;28;20196;-84
2023/06/22 09:14:09;;;;;;;13.75;12.35;;;27.80;1.00;;;;;;4993383;28;20227;-84
2023/06/22 09:16:36;;;;;;;17.95;16.05;;;27.80;1.00;;;;;;4995205;28;20214;-83
2023/06/22 09:19:04;;;;;;;14.60;13.10;;;27.70;1.00;;;;;;4992186;28;20210;-83
2023/06/22 09:21:30;;;;;;;11.35;9.68;;;27.70;1.00;;;;;;4992374;28;20215;-78
2023/06/22 09:23:57;;;;;;;13.55;11.85;;;27.60;1.00;;;;;;4990620;28;20200;-81
2023/06/22 09:26:24;;;;;;;16.00;14.13;;;27.70;1.00;;;;;;4991919;28;20204;-84
2023/06/22 09:28:53;;;;;;;15.15;13.65;;;27.70;1.00;;;;;;4992095;28;20202;-86
2023/06/22 09:31:25;;;;;;;12.70;11.48;;;27.60;1.00;;;;;;4995552;28;20208;-89
2023/06/22 09:33:52;;;;;;;15.70;11.52;;;27.70;1.00;;;;;;4995470;28;20223;-79
2023/06/22 09:36:19;;;;;;;12.15;10.82;;;27.60;1.00;;;;;;4994081;28;20572;-85
2023/06/22 09:38:46;;;;;;;13.15;11.43;;;27.40;1.00;;;;;;4993134;28;20235;-84
2023/06/22 09:41:13;;;;;;;15.90;14.25;;;27.30;1.00;;;;;;4991672;28;20242;-84
2023/06/22 09:43:39;;;;;;;13.60;11.73;;;27.10;1.00;;;;;;4982646;28;20781;-84
2023/06/22 09:46:09;;;;;;;13.05;11.15;;;27.10;1.00;;;;;;4994174;28;20212;-80
2023/06/22 09:48:36;;;;;;;14.30;12.70;;;27.20;1.00;;;;;;4993673;28;20200;-83
2023/06/22 09:51:03;;;;;;;11.93;10.68;;;27.10;1.00;;;;;;4989604;28;20295;-79
2023/06/22 09:53:30;;;;;;;13.90;12.52;;;27.20;1.00;;;;;;4974901;28;20236;-86
2023/06/22 09:55:57;;;;;;;12.55;11.25;;;27.40;1.00;;;;;;4974293;28;20732;-81
2023/06/22 09:58:24;;;;;;;11.98;10.73;;;27.40;1.00;;;;;;4975607;28;20239;-81
2023/06/22 10:00:51;;;;;;;13.57;10.90;;;27.50;1.00;;;;;;4980192;28;20197;-86
2023/06/22 10:03:19;;;;;;;12.60;9.80;;;27.50;1.00;;;;;;4984154;28;20235;-82
2023/06/22 10:05:46;;;;;;;11.88;10.77;;;27.50;1.00;;;;;;4993663;28;20231;-81
2023/06/22 10:08:13;;;;;;;11.95;8.93;;;27.50;1.00;;;;;;4993959;28;20254;-83
2023/06/22 10:10:40;;;;;;;12.05;10.25;;;27.70;1.00;;;;;;4984186;28;20209;-80
2023/06/22 10:13:11;;;;;;;10.05;9.15;;;27.90;1.00;;;;;;4992188;28;20223;-82
2023/06/22 10:15:39;;;;;;;9.90;8.75;;;28.00;1.00;;;;;;4992727;28;20200;-81
2023/06/22 10:18:06;;;;;;;11.23;8.48;;;28.00;99.90;;;;;;4984874;28;20208;-79
2023/06/22 10:20:35;;;;;;;11.18;8.90;;;28.10;99.90;;;;;;4993348;28;20266;-84
2023/06/22 10:23:02;;;;;;;10.05;9.15;;;28.00;99.90;;;;;;4992299;28;20203;-84
2023/06/22 10:25:30;;;;;;;9.30;7.95;;;27.90;99.90;;;;;;4992640;28;20224;-82
2023/06/22 10:27:57;;;;;;;8.57;7.78;;;27.80;99.90;;;;;;4990598;28;20211;-82
2023/06/22 10:30:24;;;;;;;11.45;9.23;;;27.60;99.90;;;;;;4987580;28;20218;-82
2023/06/22 10:32:51;;;;;;;11.05;8.77;;;27.60;99.90;;;;;;4973247;28;20307;-80
2023/06/22 10:35:18;;;;;;;8.05;6.80;;;27.70;99.90;;;;;;4973081;28;20617;-80
2023/06/22 10:37:47;;;;;;;9.63;8.35;;;27.70;99.90;;;;;;4973038;28;20224;-81
2023/06/22 10:40:16;;;;;;;9.18;7.10;;;27.80;99.90;;;;;;4973552;28;20227;-82
2023/06/22 10:42:43;;;;;;;6.88;6.18;;;27.70;99.90;;;;;;4972881;28;20283;-77
2023/06/22 10:45:10;;;;;;;4.05;3.55;;;27.90;99.90;;;;;;4975445;28;20193;-80
2023/06/22 10:47:38;;;;;;;4.85;3.63;;;27.90;99.90;;;;;;4975865;28;20288;-81
2023/06/22 10:50:06;;;;;;;5.85;5.00;;;28.00;99.90;;;;;;4974299;28;20216;-82
2023/06/22 10:52:33;;;;;;;6.43;5.82;;;28.00;99.90;;;;;;4974719;28;20645;-85
2023/06/22 10:55:01;;;;;;;7.43;6.65;;;28.10;99.90;;;;;;4973985;28;20225;-83
2023/06/22 10:57:28;;;;;;;6.40;5.80;;;28.20;99.90;;;;;;4972752;28;20208;-81
2023/06/22 10:59:55;;;;;;;6.55;5.90;;;28.40;99.90;;;;;;4978239;28;20211;-81
2023/06/22 11:02:22;;;;;;;7.80;6.70;;;28.40;99.90;;;;;;4993217;28;20203;-84
2023/06/22 11:04:49;;;;;;;21.10;9.75;;;28.60;99.90;;;;;;4989929;28;20207;-81
2023/06/22 11:07:17;;;;;;;11.90;8.43;;;28.50;99.90;;;;;;4993187;28;20279;-82
2023/06/22 11:09:44;;;;;;;9.32;8.43;;;28.60;99.90;;;;;;4992547;28;20204;-81
2023/06/22 11:12:13;;;;;;;10.10;9.00;;;28.50;99.90;;;;;;4980420;28;20295;-81
2023/06/22 11:14:40;;;;;;;11.55;9.90;;;28.20;99.90;;;;;;4974337;28;20625;-81
2023/06/22 11:17:07;;;;;;;9.35;8.45;;;28.00;99.90;;;;;;4975849;28;20193;-89
2023/06/22 11:19:34;;;;;;;11.52;10.38;;;27.80;99.90;;;;;;4978668;28;20250;-82
2023/06/22 11:22:01;;;;;;;15.30;12.93;;;27.70;99.90;;;;;;4996311;28;20247;-84
2023/06/22 11:24:29;;;;;;;12.45;10.80;;;27.50;99.90;;;;;;4998870;28;20200;-85
2023/06/22 11:26:56;;;;;;;10.63;9.52;;;27.30;99.90;;;;;;4999328;28;20208;-86
2023/06/22 11:29:25;;;;;;;12.30;10.48;;;27.30;99.90;;;;;;4984820;28;20555;-85
2023/06/22 11:31:51;;;;;;;11.38;9.30;;;27.10;99.90;;;;;;4982479;28;20659;-86
2023/06/22 11:34:19;;;;;;;10.45;8.40;;;27.20;99.90;;;;;;4997744;28;20275;-87
2023/06/22 11:36:47;;;;;;;7.65;6.65;;;27.10;99.90;;;;;;4982005;28;20209;-85
2023/06/22 11:39:14;;;;;;;5.95;5.35;;;27.00;99.90;;;;;;4976953;28;20205;-88
2023/06/22 11:41:41;;;;;;;6.95;4.65;;;26.90;99.90;;;;;;4977870;28;20586;-88
2023/06/22 11:44:08;;;;;;;6.75;5.57;;;27.00;99.90;;;;;;4977891;28;20283;-86
2023/06/22 11:46:37;;;;;;;8.13;6.63;;;27.10;99.90;;;;;;4977350;28;20283;-85
2023/06/22 11:49:04;;;;;;;7.45;6.10;;;27.30;99.90;;;;;;4978429;28;20209;-86
2023/06/22 11:51:32;;;;;;;7.50;6.55;;;27.30;99.90;;;;;;4979066;28;20236;-89
2023/06/22 11:53:59;;;;;;;8.70;7.65;;;27.40;99.90;;;;;;4978440;28;20237;-84
2023/06/22 11:56:27;;;;;;;8.43;7.63;;;27.40;99.90;;;;;;4978866;28;20199;-85
2023/06/22 11:58:55;;;;;;;6.22;5.63;;;27.40;99.90;;;;;;4978001;28;20271;-88
2023/06/22 12:01:22;;;;;;;9.55;6.68;;;27.40;99.90;;;;;;4978545;28;20232;-88
2023/06/22 12:03:50;;;;;;;11.35;10.20;;;27.40;99.90;;;;;;4996391;28;20207;-87
2023/06/22 12:06:18;;;;;;;12.02;10.82;;;27.40;99.90;;;;;;4998155;28;20234;-88
2023/06/22 12:08:45;;;;;;;13.57;11.18;;;27.30;99.90;;;;;;4996663;28;20210;-83
2023/06/22 12:11:12;;;;;;;11.50;10.35;;;27.20;99.90;;;;;;4978975;28;20299;-86
2023/06/22 12:13:38;;;;;;;9.75;8.30;;;27.10;99.90;;;;;;4975723;28;20676;-88
2023/06/22 12:16:06;;;;;;;11.57;10.38;;;27.00;99.90;;;;;;4976558;28;20239;-88
2023/06/22 12:18:34;;;;;;;12.00;8.75;;;26.80;99.90;;;;;;4990468;28;20214;-80
2023/06/22 12:21:03;;;;;;;11.77;9.73;;;26.70;99.90;;;;;;4992415;28;20658;-85
2023/06/22 12:23:30;;;;;;;11.77;9.57;;;26.60;99.90;;;;;;4988891;28;20211;-88
2023/06/22 12:25:57;;;;;;;13.48;10.98;;;26.50;99.90;;;;;;4987542;28;20217;-89
2023/06/22 12:28:24;;;;;;;10.38;9.27;;;26.40;99.90;;;;;;4984509;28;20344;-85
2023/06/22 12:30:51;;;;;;;12.57;11.13;;;26.30;99.90;;;;;;4985196;28;20200;-87
2023/06/22 12:33:18;;;;;;;11.88;10.32;;;26.20;99.90;;;;;;4988973;28;20225;-85